sensor_id;sensor_type;location;lat;lon;timestamp;P1;durP1;ratioP1;P2;durP2;ratioP2
3733;SDS011;1882;52.256;8.874;2023-03-23T00:00:01;6.53;;;3.67;;
3733;SDS011;1882;52.256;8.874;2023-03-23T00:02:35;7.00;;;4.00;;
3733;SDS011;1882;52.256;8.874;2023-03-23T00:05:03;5.63;;;3.67;;
3733;SDS011;1882;52.256;8.874;2023-03-23T00:07:30;5.47;;;3.87;;
3733;SDS011;1882;52.256;8.874;2023-03-23T00:09:55;5.97;;;3.80;;
3733;SDS011;1882;52.256;8.874;2023-03-23T00:12:21;7.13;;;3.90;;
3733;SDS011;1882;52.256;8.874;2023-03-23T00:15:02;7.80;;;4.20;;
3733;SDS011;1882;52.256;8.874;2023-03-23T00:17:31;7.53;;;3.93;;
3733;SDS011;1882;52.256;8.874;2023-03-23T00:20:01;15.47;;;4.60;;
3733;SDS011;1882;52.256;8.874;2023-03-23T00:22:32;9.13;;;4.23;;
3733;SDS011;1882;52.256;8.874;2023-03-23T00:25:03;7.17;;;4.23;;
3733;SDS011;1882;52.256;8.874;2023-03-23T00:27:29;6.23;;;4.70;;
3733;SDS011;1882;52.256;8.874;2023-03-23T00:29:55;6.93;;;4.30;;
3733;SDS011;1882;52.256;8.874;2023-03-23T00:32:23;8.07;;;5.00;;
3733;SDS011;1882;52.256;8.874;2023-03-23T00:34:56;7.80;;;4.90;;
3733;SDS011;1882;52.256;8.874;2023-03-23T00:37:24;8.93;;;4.10;;
3733;SDS011;1882;52.256;8.874;2023-03-23T00:39:50;7.93;;;5.00;;
3733;SDS011;1882;52.256;8.874;2023-03-23T00:42:17;7.83;;;4.80;;
3733;SDS011;1882;52.256;8.874;2023-03-23T00:44:43;10.53;;;4.43;;
3733;SDS011;1882;52.256;8.874;2023-03-23T00:47:09;9.87;;;4.50;;
3733;SDS011;1882;52.256;8.874;2023-03-23T00:49:37;8.10;;;5.10;;
3733;SDS011;1882;52.256;8.874;2023-03-23T00:52:03;11.33;;;4.67;;
3733;SDS011;1882;52.256;8.874;2023-03-23T00:54:30;8.50;;;4.70;;
3733;SDS011;1882;52.256;8.874;2023-03-23T00:56:56;10.80;;;4.90;;
3733;SDS011;1882;52.256;8.874;2023-03-23T00:59:21;8.80;;;5.07;;
3733;SDS011;1882;52.256;8.874;2023-03-23T01:01:49;6.73;;;4.37;;
3733;SDS011;1882;52.256;8.874;2023-03-23T01:04:15;12.00;;;5.27;;
3733;SDS011;1882;52.256;8.874;2023-03-23T01:06:42;7.07;;;4.57;;
3733;SDS011;1882;52.256;8.874;2023-03-23T01:09:13;6.13;;;4.23;;
3733;SDS011;1882;52.256;8.874;2023-03-23T01:11:43;7.00;;;4.23;;
3733;SDS011;1882;52.256;8.874;2023-03-23T01:14:10;9.60;;;4.40;;
3733;SDS011;1882;52.256;8.874;2023-03-23T01:16:36;5.20;;;4.13;;
3733;SDS011;1882;52.256;8.874;2023-03-23T01:19:02;7.43;;;5.17;;
3733;SDS011;1882;52.256;8.874;2023-03-23T01:21:28;8.43;;;4.73;;
3733;SDS011;1882;52.256;8.874;2023-03-23T01:23:53;6.93;;;4.60;;
3733;SDS011;1882;52.256;8.874;2023-03-23T01:26:21;6.70;;;4.10;;
3733;SDS011;1882;52.256;8.874;2023-03-23T01:28:48;10.63;;;5.20;;
3733;SDS011;1882;52.256;8.874;2023-03-23T01:31:15;7.20;;;4.40;;
3733;SDS011;1882;52.256;8.874;2023-03-23T01:33:42;7.77;;;4.43;;
3733;SDS011;1882;52.256;8.874;2023-03-23T01:36:13;5.90;;;4.40;;
3733;SDS011;1882;52.256;8.874;2023-03-23T01:38:44;5.93;;;4.80;;
3733;SDS011;1882;52.256;8.874;2023-03-23T01:41:11;8.17;;;4.67;;
3733;SDS011;1882;52.256;8.874;2023-03-23T01:46:22;7.57;;;4.50;;
3733;SDS011;1882;52.256;8.874;2023-03-23T01:48:47;6.73;;;4.53;;
3733;SDS011;1882;52.256;8.874;2023-03-23T01:51:14;8.20;;;4.10;;
3733;SDS011;1882;52.256;8.874;2023-03-23T01:53:43;6.83;;;4.60;;
3733;SDS011;1882;52.256;8.874;2023-03-23T01:56:11;7.37;;;4.00;;
3733;SDS011;1882;52.256;8.874;2023-03-23T01:58:39;7.30;;;4.50;;
3733;SDS011;1882;52.256;8.874;2023-03-23T02:01:06;6.50;;;4.03;;
3733;SDS011;1882;52.256;8.874;2023-03-23T02:03:37;7.37;;;4.23;;
3733;SDS011;1882;52.256;8.874;2023-03-23T02:06:05;5.90;;;4.20;;
3733;SDS011;1882;52.256;8.874;2023-03-23T02:08:39;6.03;;;4.07;;
3733;SDS011;1882;52.256;8.874;2023-03-23T02:11:18;7.67;;;3.80;;
3733;SDS011;1882;52.256;8.874;2023-03-23T02:13:45;5.57;;;3.90;;
3733;SDS011;1882;52.256;8.874;2023-03-23T02:16:21;6.57;;;4.57;;
3733;SDS011;1882;52.256;8.874;2023-03-23T02:26:59;5.70;;;4.13;;
3733;SDS011;1882;52.256;8.874;2023-03-23T02:32:14;7.67;;;3.70;;
3733;SDS011;1882;52.256;8.874;2023-03-23T02:37:49;6.20;;;4.17;;
3733;SDS011;1882;52.256;8.874;2023-03-23T02:40:18;6.80;;;3.80;;
3733;SDS011;1882;52.256;8.874;2023-03-23T02:42:48;5.00;;;4.00;;
3733;SDS011;1882;52.256;8.874;2023-03-23T02:45:15;5.97;;;3.73;;
3733;SDS011;1882;52.256;8.874;2023-03-23T02:47:41;9.57;;;4.17;;
3733;SDS011;1882;52.256;8.874;2023-03-23T02:50:11;5.60;;;4.00;;
3733;SDS011;1882;52.256;8.874;2023-03-23T02:52:39;6.17;;;3.70;;
3733;SDS011;1882;52.256;8.874;2023-03-23T02:55:06;6.10;;;3.80;;
3733;SDS011;1882;52.256;8.874;2023-03-23T02:57:33;5.97;;;3.93;;
3733;SDS011;1882;52.256;8.874;2023-03-23T03:00:01;5.10;;;4.20;;
3733;SDS011;1882;52.256;8.874;2023-03-23T03:02:30;4.43;;;3.50;;
3733;SDS011;1882;52.256;8.874;2023-03-23T03:05:01;4.70;;;3.43;;
3733;SDS011;1882;52.256;8.874;2023-03-23T03:10:13;5.40;;;3.83;;
3733;SDS011;1882;52.256;8.874;2023-03-23T03:17:40;7.90;;;3.63;;
3733;SDS011;1882;52.256;8.874;2023-03-23T03:20:08;5.77;;;3.63;;
3733;SDS011;1882;52.256;8.874;2023-03-23T03:22:37;4.67;;;3.10;;
3733;SDS011;1882;52.256;8.874;2023-03-23T03:25:04;4.93;;;3.30;;
3733;SDS011;1882;52.256;8.874;2023-03-23T03:27:31;5.13;;;3.00;;
3733;SDS011;1882;52.256;8.874;2023-03-23T03:30:25;3.90;;;3.30;;
3733;SDS011;1882;52.256;8.874;2023-03-23T03:32:52;4.07;;;3.17;;
3733;SDS011;1882;52.256;8.874;2023-03-23T03:35:22;4.83;;;2.90;;
3733;SDS011;1882;52.256;8.874;2023-03-23T03:37:49;4.77;;;3.20;;
3733;SDS011;1882;52.256;8.874;2023-03-23T03:40:17;5.43;;;2.90;;
3733;SDS011;1882;52.256;8.874;2023-03-23T03:42:46;5.07;;;2.90;;
3733;SDS011;1882;52.256;8.874;2023-03-23T03:45:17;4.20;;;3.30;;
3733;SDS011;1882;52.256;8.874;2023-03-23T03:47:45;3.83;;;2.63;;
3733;SDS011;1882;52.256;8.874;2023-03-23T03:50:12;6.33;;;3.10;;
3733;SDS011;1882;52.256;8.874;2023-03-23T03:52:38;5.23;;;2.83;;
3733;SDS011;1882;52.256;8.874;2023-03-23T03:55:06;3.60;;;2.80;;
3733;SDS011;1882;52.256;8.874;2023-03-23T03:57:34;5.67;;;3.07;;
3733;SDS011;1882;52.256;8.874;2023-03-23T04:00:31;2.80;;;2.50;;
3733;SDS011;1882;52.256;8.874;2023-03-23T04:02:57;4.33;;;3.03;;
3733;SDS011;1882;52.256;8.874;2023-03-23T04:05:42;4.77;;;2.70;;
3733;SDS011;1882;52.256;8.874;2023-03-23T04:08:10;4.10;;;2.70;;
3733;SDS011;1882;52.256;8.874;2023-03-23T04:10:36;4.13;;;2.83;;
3733;SDS011;1882;52.256;8.874;2023-03-23T04:13:02;3.90;;;2.80;;
3733;SDS011;1882;52.256;8.874;2023-03-23T04:15:32;4.10;;;2.60;;
3733;SDS011;1882;52.256;8.874;2023-03-23T04:17:59;4.40;;;2.50;;
3733;SDS011;1882;52.256;8.874;2023-03-23T04:20:24;3.90;;;2.70;;
3733;SDS011;1882;52.256;8.874;2023-03-23T04:22:51;4.40;;;2.60;;
3733;SDS011;1882;52.256;8.874;2023-03-23T04:25:19;5.03;;;2.70;;
3733;SDS011;1882;52.256;8.874;2023-03-23T04:27:50;3.53;;;2.67;;
3733;SDS011;1882;52.256;8.874;2023-03-23T04:30:25;4.20;;;2.80;;
3733;SDS011;1882;52.256;8.874;2023-03-23T04:33:07;3.10;;;2.80;;
3733;SDS011;1882;52.256;8.874;2023-03-23T04:35:32;4.57;;;3.10;;
3733;SDS011;1882;52.256;8.874;2023-03-23T04:38:08;3.70;;;2.70;;
3733;SDS011;1882;52.256;8.874;2023-03-23T04:40:36;5.43;;;2.50;;
3733;SDS011;1882;52.256;8.874;2023-03-23T04:43:15;5.30;;;2.70;;
3733;SDS011;1882;52.256;8.874;2023-03-23T04:46:00;2.97;;;2.40;;
3733;SDS011;1882;52.256;8.874;2023-03-23T04:48:31;3.20;;;2.30;;
3733;SDS011;1882;52.256;8.874;2023-03-23T04:51:08;3.60;;;2.73;;
3733;SDS011;1882;52.256;8.874;2023-03-23T04:53:35;3.77;;;2.50;;
3733;SDS011;1882;52.256;8.874;2023-03-23T04:56:01;4.70;;;2.60;;
3733;SDS011;1882;52.256;8.874;2023-03-23T04:58:32;3.40;;;2.57;;
3733;SDS011;1882;52.256;8.874;2023-03-23T05:01:22;3.53;;;2.40;;
3733;SDS011;1882;52.256;8.874;2023-03-23T05:04:03;4.03;;;2.80;;
3733;SDS011;1882;52.256;8.874;2023-03-23T05:06:29;2.50;;;2.30;;
3733;SDS011;1882;52.256;8.874;2023-03-23T05:09:00;5.60;;;2.63;;
3733;SDS011;1882;52.256;8.874;2023-03-23T05:11:26;5.27;;;2.60;;
3733;SDS011;1882;52.256;8.874;2023-03-23T05:13:52;2.70;;;2.33;;
3733;SDS011;1882;52.256;8.874;2023-03-23T05:16:17;4.17;;;2.30;;
3733;SDS011;1882;52.256;8.874;2023-03-23T05:18:43;4.27;;;2.60;;
3733;SDS011;1882;52.256;8.874;2023-03-23T05:21:14;6.63;;;2.40;;
3733;SDS011;1882;52.256;8.874;2023-03-23T05:23:44;3.17;;;2.23;;
3733;SDS011;1882;52.256;8.874;2023-03-23T05:26:16;5.37;;;2.20;;
3733;SDS011;1882;52.256;8.874;2023-03-23T05:28:41;3.93;;;2.40;;
3733;SDS011;1882;52.256;8.874;2023-03-23T05:31:23;2.80;;;2.30;;
3733;SDS011;1882;52.256;8.874;2023-03-23T05:33:50;7.80;;;2.30;;
3733;SDS011;1882;52.256;8.874;2023-03-23T05:36:49;2.47;;;2.27;;
3733;SDS011;1882;52.256;8.874;2023-03-23T05:39:38;4.33;;;2.30;;
3733;SDS011;1882;52.256;8.874;2023-03-23T05:42:13;2.63;;;2.43;;
3733;SDS011;1882;52.256;8.874;2023-03-23T05:44:46;3.37;;;2.30;;
3733;SDS011;1882;52.256;8.874;2023-03-23T05:47:13;2.30;;;2.10;;
3733;SDS011;1882;52.256;8.874;2023-03-23T05:49:44;2.57;;;2.30;;
3733;SDS011;1882;52.256;8.874;2023-03-23T05:52:15;5.10;;;2.50;;
3733;SDS011;1882;52.256;8.874;2023-03-23T05:54:41;3.90;;;2.60;;
3733;SDS011;1882;52.256;8.874;2023-03-23T05:57:07;3.60;;;2.47;;
3733;SDS011;1882;52.256;8.874;2023-03-23T05:59:44;2.20;;;2.00;;
3733;SDS011;1882;52.256;8.874;2023-03-23T06:02:15;2.63;;;2.23;;
3733;SDS011;1882;52.256;8.874;2023-03-23T06:04:41;5.23;;;2.20;;
3733;SDS011;1882;52.256;8.874;2023-03-23T06:07:21;3.20;;;2.33;;
3733;SDS011;1882;52.256;8.874;2023-03-23T06:09:58;3.10;;;2.67;;
3733;SDS011;1882;52.256;8.874;2023-03-23T06:12:38;2.73;;;2.40;;
3733;SDS011;1882;52.256;8.874;2023-03-23T06:15:23;2.60;;;2.13;;
3733;SDS011;1882;52.256;8.874;2023-03-23T06:18:15;4.57;;;2.30;;
3733;SDS011;1882;52.256;8.874;2023-03-23T06:20:50;2.50;;;2.30;;
3733;SDS011;1882;52.256;8.874;2023-03-23T06:23:25;3.43;;;2.40;;
3733;SDS011;1882;52.256;8.874;2023-03-23T06:25:59;4.83;;;2.17;;
3733;SDS011;1882;52.256;8.874;2023-03-23T06:28:28;2.53;;;2.33;;
3733;SDS011;1882;52.256;8.874;2023-03-23T06:30:54;3.53;;;2.40;;
3733;SDS011;1882;52.256;8.874;2023-03-23T06:33:20;2.93;;;2.63;;
3733;SDS011;1882;52.256;8.874;2023-03-23T06:36:07;2.63;;;2.43;;
3733;SDS011;1882;52.256;8.874;2023-03-23T06:38:44;3.20;;;2.50;;
3733;SDS011;1882;52.256;8.874;2023-03-23T06:41:11;2.73;;;2.50;;
3733;SDS011;1882;52.256;8.874;2023-03-23T06:43:37;5.47;;;2.20;;
3733;SDS011;1882;52.256;8.874;2023-03-23T06:46:17;2.80;;;2.53;;
3733;SDS011;1882;52.256;8.874;2023-03-23T06:49:06;2.53;;;2.33;;
3733;SDS011;1882;52.256;8.874;2023-03-23T06:51:42;3.30;;;2.60;;
3733;SDS011;1882;52.256;8.874;2023-03-23T06:54:08;3.53;;;2.23;;
3733;SDS011;1882;52.256;8.874;2023-03-23T06:56:37;4.70;;;2.60;;
3733;SDS011;1882;52.256;8.874;2023-03-23T06:59:03;4.17;;;2.97;;
3733;SDS011;1882;52.256;8.874;2023-03-23T07:01:29;3.93;;;2.50;;
3733;SDS011;1882;52.256;8.874;2023-03-23T07:03:58;2.70;;;2.50;;
3733;SDS011;1882;52.256;8.874;2023-03-23T07:06:43;3.00;;;2.70;;
3733;SDS011;1882;52.256;8.874;2023-03-23T07:09:09;2.83;;;2.40;;
3733;SDS011;1882;52.256;8.874;2023-03-23T07:11:35;2.87;;;2.47;;
3733;SDS011;1882;52.256;8.874;2023-03-23T07:14:08;6.13;;;2.43;;
3733;SDS011;1882;52.256;8.874;2023-03-23T07:16:34;5.07;;;2.70;;
3733;SDS011;1882;52.256;8.874;2023-03-23T07:19:00;2.83;;;2.53;;
3733;SDS011;1882;52.256;8.874;2023-03-23T07:21:28;3.33;;;2.50;;
3733;SDS011;1882;52.256;8.874;2023-03-23T07:23:54;4.67;;;3.00;;
3733;SDS011;1882;52.256;8.874;2023-03-23T07:26:35;3.00;;;2.70;;
3733;SDS011;1882;52.256;8.874;2023-03-23T07:29:01;3.70;;;2.27;;
3733;SDS011;1882;52.256;8.874;2023-03-23T07:31:37;3.33;;;2.63;;
3733;SDS011;1882;52.256;8.874;2023-03-23T07:34:02;5.10;;;2.80;;
3733;SDS011;1882;52.256;8.874;2023-03-23T07:37:03;2.60;;;2.33;;
3733;SDS011;1882;52.256;8.874;2023-03-23T07:39:33;3.20;;;2.70;;
3733;SDS011;1882;52.256;8.874;2023-03-23T07:42:00;5.13;;;2.40;;
3733;SDS011;1882;52.256;8.874;2023-03-23T07:44:40;5.10;;;2.63;;
3733;SDS011;1882;52.256;8.874;2023-03-23T07:47:09;5.33;;;2.83;;
3733;SDS011;1882;52.256;8.874;2023-03-23T07:49:35;2.50;;;2.30;;
3733;SDS011;1882;52.256;8.874;2023-03-23T07:52:14;4.03;;;2.77;;
3733;SDS011;1882;52.256;8.874;2023-03-23T07:54:40;7.00;;;2.67;;
3733;SDS011;1882;52.256;8.874;2023-03-23T07:57:25;8.00;;;2.97;;
3733;SDS011;1882;52.256;8.874;2023-03-23T07:59:52;4.60;;;2.60;;
3733;SDS011;1882;52.256;8.874;2023-03-23T08:02:18;7.93;;;2.40;;
3733;SDS011;1882;52.256;8.874;2023-03-23T08:05:09;4.73;;;2.70;;
3733;SDS011;1882;52.256;8.874;2023-03-23T08:07:54;3.23;;;2.70;;
3733;SDS011;1882;52.256;8.874;2023-03-23T08:10:38;5.27;;;2.47;;
3733;SDS011;1882;52.256;8.874;2023-03-23T08:13:42;3.83;;;2.70;;
3733;SDS011;1882;52.256;8.874;2023-03-23T08:16:26;9.50;;;2.97;;
3733;SDS011;1882;52.256;8.874;2023-03-23T08:19:12;5.67;;;3.07;;
3733;SDS011;1882;52.256;8.874;2023-03-23T08:21:58;4.37;;;2.80;;
3733;SDS011;1882;52.256;8.874;2023-03-23T08:24:24;5.80;;;2.83;;
3733;SDS011;1882;52.256;8.874;2023-03-23T08:27:13;3.53;;;3.07;;
3733;SDS011;1882;52.256;8.874;2023-03-23T08:29:49;7.20;;;2.80;;
3733;SDS011;1882;52.256;8.874;2023-03-23T08:32:41;4.93;;;2.80;;
3733;SDS011;1882;52.256;8.874;2023-03-23T08:35:28;6.67;;;2.93;;
3733;SDS011;1882;52.256;8.874;2023-03-23T08:38:18;3.37;;;2.80;;
3733;SDS011;1882;52.256;8.874;2023-03-23T08:41:06;6.73;;;3.43;;
3733;SDS011;1882;52.256;8.874;2023-03-23T08:43:51;4.33;;;2.83;;
3733;SDS011;1882;52.256;8.874;2023-03-23T08:46:18;4.93;;;2.87;;
3733;SDS011;1882;52.256;8.874;2023-03-23T08:49:06;6.17;;;2.50;;
3733;SDS011;1882;52.256;8.874;2023-03-23T08:51:31;6.43;;;3.10;;
3733;SDS011;1882;52.256;8.874;2023-03-23T08:54:11;6.13;;;3.20;;
3733;SDS011;1882;52.256;8.874;2023-03-23T08:57:00;4.63;;;2.90;;
3733;SDS011;1882;52.256;8.874;2023-03-23T08:59:33;5.53;;;2.93;;
3733;SDS011;1882;52.256;8.874;2023-03-23T09:02:18;6.10;;;2.73;;
3733;SDS011;1882;52.256;8.874;2023-03-23T09:05:04;8.83;;;3.57;;
3733;SDS011;1882;52.256;8.874;2023-03-23T09:07:54;6.00;;;3.20;;
3733;SDS011;1882;52.256;8.874;2023-03-23T09:10:24;7.43;;;3.43;;
3733;SDS011;1882;52.256;8.874;2023-03-23T09:12:54;7.10;;;2.90;;
3733;SDS011;1882;52.256;8.874;2023-03-23T09:15:20;6.87;;;2.73;;
3733;SDS011;1882;52.256;8.874;2023-03-23T09:17:51;5.33;;;3.07;;
3733;SDS011;1882;52.256;8.874;2023-03-23T09:20:18;7.40;;;2.70;;
3733;SDS011;1882;52.256;8.874;2023-03-23T09:22:47;6.27;;;3.00;;
3733;SDS011;1882;52.256;8.874;2023-03-23T09:25:15;6.07;;;3.00;;
3733;SDS011;1882;52.256;8.874;2023-03-23T09:27:46;7.47;;;3.17;;
3733;SDS011;1882;52.256;8.874;2023-03-23T09:30:14;9.13;;;3.10;;
3733;SDS011;1882;52.256;8.874;2023-03-23T09:32:40;10.30;;;3.20;;
3733;SDS011;1882;52.256;8.874;2023-03-23T09:35:09;6.47;;;3.07;;
3733;SDS011;1882;52.256;8.874;2023-03-23T09:37:36;5.80;;;3.07;;
3733;SDS011;1882;52.256;8.874;2023-03-23T09:40:03;7.07;;;3.10;;
3733;SDS011;1882;52.256;8.874;2023-03-23T09:45:33;6.10;;;3.23;;
3733;SDS011;1882;52.256;8.874;2023-03-23T09:53:47;5.27;;;2.80;;
3733;SDS011;1882;52.256;8.874;2023-03-23T09:56:16;6.37;;;2.43;;
3733;SDS011;1882;52.256;8.874;2023-03-23T09:58:47;5.53;;;2.80;;
3733;SDS011;1882;52.256;8.874;2023-03-23T10:01:39;5.83;;;2.93;;
3733;SDS011;1882;52.256;8.874;2023-03-23T10:04:33;5.93;;;2.70;;
3733;SDS011;1882;52.256;8.874;2023-03-23T10:09:41;5.50;;;2.80;;
3733;SDS011;1882;52.256;8.874;2023-03-23T10:12:14;5.37;;;3.03;;
3733;SDS011;1882;52.256;8.874;2023-03-23T10:17:33;5.63;;;2.63;;
3733;SDS011;1882;52.256;8.874;2023-03-23T10:25:51;5.00;;;2.83;;
3733;SDS011;1882;52.256;8.874;2023-03-23T10:28:20;8.63;;;3.37;;
3733;SDS011;1882;52.256;8.874;2023-03-23T10:30:55;4.73;;;3.40;;
3733;SDS011;1882;52.256;8.874;2023-03-23T10:38:49;6.47;;;3.07;;
3733;SDS011;1882;52.256;8.874;2023-03-23T10:41:18;5.63;;;3.10;;
3733;SDS011;1882;52.256;8.874;2023-03-23T10:43:45;7.13;;;3.10;;
3733;SDS011;1882;52.256;8.874;2023-03-23T10:48:46;7.10;;;3.50;;
3733;SDS011;1882;52.256;8.874;2023-03-23T10:51:13;8.87;;;4.07;;
3733;SDS011;1882;52.256;8.874;2023-03-23T10:53:43;7.83;;;3.30;;
3733;SDS011;1882;52.256;8.874;2023-03-23T10:56:26;6.13;;;3.50;;
3733;SDS011;1882;52.256;8.874;2023-03-23T10:58:54;4.57;;;3.50;;
3733;SDS011;1882;52.256;8.874;2023-03-23T11:01:30;7.43;;;3.47;;
3733;SDS011;1882;52.256;8.874;2023-03-23T11:03:57;10.33;;;3.33;;
3733;SDS011;1882;52.256;8.874;2023-03-23T11:06:45;10.30;;;4.07;;
3733;SDS011;1882;52.256;8.874;2023-03-23T11:09:13;6.10;;;4.00;;
3733;SDS011;1882;52.256;8.874;2023-03-23T11:11:48;5.33;;;4.07;;
3733;SDS011;1882;52.256;8.874;2023-03-23T11:16:53;8.67;;;4.30;;
3733;SDS011;1882;52.256;8.874;2023-03-23T11:19:30;5.87;;;3.20;;
3733;SDS011;1882;52.256;8.874;2023-03-23T11:22:06;2.63;;;2.10;;
3733;SDS011;1882;52.256;8.874;2023-03-23T11:24:34;4.37;;;1.90;;
3733;SDS011;1882;52.256;8.874;2023-03-23T11:27:01;2.27;;;1.97;;
3733;SDS011;1882;52.256;8.874;2023-03-23T11:29:32;4.33;;;1.83;;
3733;SDS011;1882;52.256;8.874;2023-03-23T11:37:02;3.63;;;1.70;;
3733;SDS011;1882;52.256;8.874;2023-03-23T11:39:32;3.50;;;1.80;;
3733;SDS011;1882;52.256;8.874;2023-03-23T11:42:01;6.83;;;1.80;;
3733;SDS011;1882;52.256;8.874;2023-03-23T11:44:41;1.70;;;1.60;;
3733;SDS011;1882;52.256;8.874;2023-03-23T11:55:08;3.03;;;1.73;;
3733;SDS011;1882;52.256;8.874;2023-03-23T11:57:39;1.87;;;1.47;;
3733;SDS011;1882;52.256;8.874;2023-03-23T12:00:15;1.83;;;1.40;;
3733;SDS011;1882;52.256;8.874;2023-03-23T12:06:23;3.17;;;1.50;;
3733;SDS011;1882;52.256;8.874;2023-03-23T12:11:22;8.27;;;1.70;;
3733;SDS011;1882;52.256;8.874;2023-03-23T12:17:16;2.97;;;1.50;;
3733;SDS011;1882;52.256;8.874;2023-03-23T12:33:44;3.40;;;1.97;;
3733;SDS011;1882;52.256;8.874;2023-03-23T12:36:32;3.93;;;1.30;;
3733;SDS011;1882;52.256;8.874;2023-03-23T12:44:55;3.53;;;1.37;;
3733;SDS011;1882;52.256;8.874;2023-03-23T12:47:36;2.70;;;1.50;;
3733;SDS011;1882;52.256;8.874;2023-03-23T12:50:18;3.33;;;1.60;;
3733;SDS011;1882;52.256;8.874;2023-03-23T12:52:57;4.90;;;1.50;;
3733;SDS011;1882;52.256;8.874;2023-03-23T12:57:59;2.03;;;1.20;;
3733;SDS011;1882;52.256;8.874;2023-03-23T13:03:15;1.83;;;1.40;;
3733;SDS011;1882;52.256;8.874;2023-03-23T13:05:47;2.60;;;1.20;;
3733;SDS011;1882;52.256;8.874;2023-03-23T13:08:40;2.83;;;1.40;;
3733;SDS011;1882;52.256;8.874;2023-03-23T13:11:24;1.30;;;1.20;;
3733;SDS011;1882;52.256;8.874;2023-03-23T13:13:54;3.83;;;1.50;;
3733;SDS011;1882;52.256;8.874;2023-03-23T13:19:31;1.90;;;1.23;;
3733;SDS011;1882;52.256;8.874;2023-03-23T13:22:07;4.00;;;1.60;;
3733;SDS011;1882;52.256;8.874;2023-03-23T13:24:38;2.00;;;1.33;;
3733;SDS011;1882;52.256;8.874;2023-03-23T13:27:12;5.43;;;1.23;;
3733;SDS011;1882;52.256;8.874;2023-03-23T13:29:43;1.73;;;1.10;;
3733;SDS011;1882;52.256;8.874;2023-03-23T13:32:11;6.40;;;1.43;;
3733;SDS011;1882;52.256;8.874;2023-03-23T13:34:40;4.93;;;1.67;;
3733;SDS011;1882;52.256;8.874;2023-03-23T13:37:27;2.43;;;1.60;;
3733;SDS011;1882;52.256;8.874;2023-03-23T13:39:53;5.80;;;1.40;;
3733;SDS011;1882;52.256;8.874;2023-03-23T13:47:21;2.83;;;1.53;;
3733;SDS011;1882;52.256;8.874;2023-03-23T13:52:25;2.30;;;1.30;;
3733;SDS011;1882;52.256;8.874;2023-03-23T13:55:17;3.90;;;1.50;;
3733;SDS011;1882;52.256;8.874;2023-03-23T13:57:51;3.57;;;1.63;;
3733;SDS011;1882;52.256;8.874;2023-03-23T14:06:13;1.47;;;1.37;;
3733;SDS011;1882;52.256;8.874;2023-03-23T14:09:29;1.40;;;1.30;;
3733;SDS011;1882;52.256;8.874;2023-03-23T14:11:59;5.37;;;1.70;;
3733;SDS011;1882;52.256;8.874;2023-03-23T14:14:32;2.40;;;2.07;;
3733;SDS011;1882;52.256;8.874;2023-03-23T14:17:12;4.00;;;1.63;;
3733;SDS011;1882;52.256;8.874;2023-03-23T14:19:38;2.10;;;1.40;;
3733;SDS011;1882;52.256;8.874;2023-03-23T14:22:14;1.83;;;1.60;;
3733;SDS011;1882;52.256;8.874;2023-03-23T14:24:43;2.27;;;1.60;;
3733;SDS011;1882;52.256;8.874;2023-03-23T14:27:14;2.60;;;1.60;;
3733;SDS011;1882;52.256;8.874;2023-03-23T14:29:41;1.60;;;1.50;;
3733;SDS011;1882;52.256;8.874;2023-03-23T14:32:10;1.73;;;1.60;;
3733;SDS011;1882;52.256;8.874;2023-03-23T14:34:39;3.17;;;1.93;;
3733;SDS011;1882;52.256;8.874;2023-03-23T14:37:05;2.43;;;1.70;;
3733;SDS011;1882;52.256;8.874;2023-03-23T14:39:36;5.97;;;1.90;;
3733;SDS011;1882;52.256;8.874;2023-03-23T14:42:06;2.07;;;1.93;;
3733;SDS011;1882;52.256;8.874;2023-03-23T14:44:37;1.80;;;1.60;;
3733;SDS011;1882;52.256;8.874;2023-03-23T14:47:08;2.00;;;1.80;;
3733;SDS011;1882;52.256;8.874;2023-03-23T14:49:41;2.37;;;2.10;;
3733;SDS011;1882;52.256;8.874;2023-03-23T14:52:15;2.97;;;1.80;;
3733;SDS011;1882;52.256;8.874;2023-03-23T14:54:42;2.20;;;2.10;;
3733;SDS011;1882;52.256;8.874;2023-03-23T14:59:40;2.50;;;2.30;;
3733;SDS011;1882;52.256;8.874;2023-03-23T15:02:09;2.47;;;2.27;;
3733;SDS011;1882;52.256;8.874;2023-03-23T15:04:42;3.00;;;2.50;;
3733;SDS011;1882;52.256;8.874;2023-03-23T15:07:09;2.63;;;2.43;;
3733;SDS011;1882;52.256;8.874;2023-03-23T15:09:37;3.17;;;2.80;;
3733;SDS011;1882;52.256;8.874;2023-03-23T15:12:05;3.97;;;2.73;;
3733;SDS011;1882;52.256;8.874;2023-03-23T15:14:32;4.10;;;3.50;;
3733;SDS011;1882;52.256;8.874;2023-03-23T15:17:09;7.73;;;3.43;;
3733;SDS011;1882;52.256;8.874;2023-03-23T15:19:37;4.53;;;3.57;;
3733;SDS011;1882;52.256;8.874;2023-03-23T15:22:14;5.33;;;3.67;;
3733;SDS011;1882;52.256;8.874;2023-03-23T15:24:46;7.80;;;3.83;;
3733;SDS011;1882;52.256;8.874;2023-03-23T15:29:54;4.10;;;3.70;;
3733;SDS011;1882;52.256;8.874;2023-03-23T15:32:27;6.27;;;3.87;;
3733;SDS011;1882;52.256;8.874;2023-03-23T15:34:55;5.23;;;4.17;;
3733;SDS011;1882;52.256;8.874;2023-03-23T15:39:54;5.27;;;4.13;;
3733;SDS011;1882;52.256;8.874;2023-03-23T15:42:22;4.23;;;3.67;;
3733;SDS011;1882;52.256;8.874;2023-03-23T15:44:54;6.93;;;4.23;;
3733;SDS011;1882;52.256;8.874;2023-03-23T15:47:21;6.17;;;4.00;;
3733;SDS011;1882;52.256;8.874;2023-03-23T15:50:01;4.47;;;4.07;;
3733;SDS011;1882;52.256;8.874;2023-03-23T15:52:36;10.70;;;4.10;;
3733;SDS011;1882;52.256;8.874;2023-03-23T15:55:02;6.67;;;4.40;;
3733;SDS011;1882;52.256;8.874;2023-03-23T15:57:27;6.77;;;3.73;;
3733;SDS011;1882;52.256;8.874;2023-03-23T15:59:53;5.10;;;4.17;;
3733;SDS011;1882;52.256;8.874;2023-03-23T16:02:21;6.57;;;4.40;;
3733;SDS011;1882;52.256;8.874;2023-03-23T16:04:49;6.07;;;4.47;;
3733;SDS011;1882;52.256;8.874;2023-03-23T16:07:18;6.10;;;5.03;;
3733;SDS011;1882;52.256;8.874;2023-03-23T16:09:47;6.70;;;4.50;;
3733;SDS011;1882;52.256;8.874;2023-03-23T16:12:13;9.83;;;5.90;;
3733;SDS011;1882;52.256;8.874;2023-03-23T16:14:40;8.00;;;4.73;;
3733;SDS011;1882;52.256;8.874;2023-03-23T16:17:10;6.07;;;4.97;;
3733;SDS011;1882;52.256;8.874;2023-03-23T16:19:41;4.80;;;4.30;;
3733;SDS011;1882;52.256;8.874;2023-03-23T16:22:08;7.53;;;4.30;;
3733;SDS011;1882;52.256;8.874;2023-03-23T16:24:35;4.93;;;3.70;;
3733;SDS011;1882;52.256;8.874;2023-03-23T16:27:02;5.60;;;4.30;;
3733;SDS011;1882;52.256;8.874;2023-03-23T16:29:28;7.33;;;4.10;;
3733;SDS011;1882;52.256;8.874;2023-03-23T16:32:15;5.87;;;3.70;;
3733;SDS011;1882;52.256;8.874;2023-03-23T16:34:42;8.10;;;3.87;;
3733;SDS011;1882;52.256;8.874;2023-03-23T16:37:09;6.00;;;3.47;;
3733;SDS011;1882;52.256;8.874;2023-03-23T16:39:39;4.57;;;3.80;;
3733;SDS011;1882;52.256;8.874;2023-03-23T16:42:05;6.57;;;3.83;;
3733;SDS011;1882;52.256;8.874;2023-03-23T16:44:32;4.60;;;3.63;;
3733;SDS011;1882;52.256;8.874;2023-03-23T16:46:59;6.67;;;3.60;;
3733;SDS011;1882;52.256;8.874;2023-03-23T16:49:26;5.77;;;3.60;;
3733;SDS011;1882;52.256;8.874;2023-03-23T16:51:52;7.53;;;3.87;;
3733;SDS011;1882;52.256;8.874;2023-03-23T16:54:19;10.60;;;4.00;;
3733;SDS011;1882;52.256;8.874;2023-03-23T16:56:46;7.57;;;3.80;;
3733;SDS011;1882;52.256;8.874;2023-03-23T16:59:14;7.00;;;3.90;;
3733;SDS011;1882;52.256;8.874;2023-03-23T17:01:41;5.33;;;4.07;;
3733;SDS011;1882;52.256;8.874;2023-03-23T17:04:08;8.17;;;4.60;;
3733;SDS011;1882;52.256;8.874;2023-03-23T17:06:35;5.57;;;3.40;;
3733;SDS011;1882;52.256;8.874;2023-03-23T17:09:09;13.80;;;3.60;;
3733;SDS011;1882;52.256;8.874;2023-03-23T17:11:36;6.30;;;4.00;;
3733;SDS011;1882;52.256;8.874;2023-03-23T17:14:02;7.47;;;3.90;;
3733;SDS011;1882;52.256;8.874;2023-03-23T17:16:29;4.90;;;3.87;;
3733;SDS011;1882;52.256;8.874;2023-03-23T17:18:56;7.43;;;4.20;;
3733;SDS011;1882;52.256;8.874;2023-03-23T17:21:25;7.50;;;4.70;;
3733;SDS011;1882;52.256;8.874;2023-03-23T17:23:52;6.67;;;4.60;;
3733;SDS011;1882;52.256;8.874;2023-03-23T17:26:19;7.27;;;4.13;;
3733;SDS011;1882;52.256;8.874;2023-03-23T17:28:46;6.77;;;4.33;;
3733;SDS011;1882;52.256;8.874;2023-03-23T17:31:13;6.83;;;4.50;;
3733;SDS011;1882;52.256;8.874;2023-03-23T17:33:42;13.10;;;6.60;;
3733;SDS011;1882;52.256;8.874;2023-03-23T17:36:09;8.17;;;5.20;;
3733;SDS011;1882;52.256;8.874;2023-03-23T17:38:36;7.83;;;5.17;;
3733;SDS011;1882;52.256;8.874;2023-03-23T17:41:03;6.40;;;4.70;;
3733;SDS011;1882;52.256;8.874;2023-03-23T17:43:31;8.73;;;5.30;;
3733;SDS011;1882;52.256;8.874;2023-03-23T17:45:59;8.30;;;4.80;;
3733;SDS011;1882;52.256;8.874;2023-03-23T17:48:25;8.63;;;5.37;;